Crested Butte, Colorado
Current Conditions -  °F | °C
As of 12:15 AM on Sunday 23 Nov 2014 (Local Time) from KGUC Reporting Station
Overcast Overcast  
Wind Chill: 28°   Ceiling: 800
Heat Index: 28°   Visibility: 0.75mi
Dew Point: 25°   Wind: 0mph
Humidity: 86%   Direction: NA
Pressure: 29.78"   Gusts: NA
Location:  38.87°N, 106.98°W
Report Text: KGUC 230715Z AUTO 00000KT 3/4SM OVC008 M02/M04 A2978 RMK AO1 P0001
Loading
Personal Weather Stations






























Interactive Weather Map New forecast layout! Learn more

10-Day Weather Forecast

Advertisements
Track Severe Weather on mobile